createdAt,value
2023-04-16T00:02:09.841Z,1.62
2023-04-16T00:04:37.003Z,1.59
2023-04-16T00:07:04.628Z,1.54
2023-04-16T00:09:32.099Z,1.53
2023-04-16T00:11:59.200Z,1.44
2023-04-16T00:14:26.296Z,1.45
2023-04-16T00:16:53.406Z,1.46
2023-04-16T00:19:20.688Z,1.52
2023-04-16T00:21:47.890Z,1.43
2023-04-16T00:24:15.103Z,1.52
2023-04-16T00:26:44.425Z,1.51
2023-04-16T00:29:11.577Z,1.50
2023-04-16T00:31:39.198Z,1.49
2023-04-16T00:34:06.529Z,1.49
2023-04-16T00:36:33.588Z,1.47
2023-04-16T00:39:00.641Z,1.47
2023-04-16T00:41:27.961Z,1.45
2023-04-16T00:43:54.920Z,1.43
2023-04-16T00:46:24.162Z,1.42
2023-04-16T00:48:53.093Z,1.40
2023-04-16T00:51:21.793Z,1.38
2023-04-16T00:53:49.244Z,1.34
2023-04-16T00:56:17.650Z,1.35
2023-04-16T00:58:45.050Z,1.22
2023-04-16T01:01:14.440Z,1.27
2023-04-16T01:03:47.108Z,1.23
2023-04-16T01:06:16.781Z,1.22
2023-04-16T01:08:44.258Z,1.18
2023-04-16T01:11:12.360Z,1.18
2023-04-16T01:13:39.882Z,1.12
2023-04-16T01:16:11.599Z,1.12
2023-04-16T01:18:39.355Z,1.10
2023-04-16T01:21:07.058Z,1.07
2023-04-16T01:23:34.373Z,1.09
2023-04-16T01:26:01.567Z,0.96
2023-04-16T01:28:28.693Z,1.02
2023-04-16T01:30:55.855Z,1.04
2023-04-16T01:33:22.942Z,1.04
2023-04-16T01:35:50.100Z,1.03
2023-04-16T01:38:17.519Z,0.94
2023-04-16T01:40:44.680Z,0.98
2023-04-16T01:43:11.729Z,0.99
2023-04-16T01:45:38.699Z,0.99
2023-04-16T01:48:06.043Z,0.98
2023-04-16T01:50:33.851Z,0.98
2023-04-16T01:53:02.336Z,0.98
2023-04-16T01:55:29.303Z,0.94
2023-04-16T01:57:56.559Z,0.96
2023-04-16T02:00:23.551Z,0.98
2023-04-16T02:02:50.788Z,0.98
2023-04-16T02:05:18.163Z,1.00
2023-04-16T02:07:45.143Z,1.02
2023-04-16T02:10:12.190Z,1.02
2023-04-16T02:12:39.391Z,1.01
2023-04-16T02:15:07.417Z,1.01
2023-04-16T02:17:35.348Z,1.07
2023-04-16T02:20:05.789Z,1.11
2023-04-16T02:22:32.916Z,1.12
2023-04-16T02:24:59.970Z,1.18
2023-04-16T02:27:27.073Z,1.23
2023-04-16T02:29:54.245Z,1.29
2023-04-16T02:32:22.410Z,1.35
2023-04-16T02:34:49.770Z,1.42
2023-04-16T02:37:16.811Z,1.52
2023-04-16T02:39:44.208Z,1.62
2023-04-16T02:42:11.373Z,1.71
2023-04-16T02:44:38.326Z,1.81
2023-04-16T02:47:05.398Z,1.92
2023-04-16T02:49:32.511Z,2.01
2023-04-16T02:51:59.585Z,2.14
2023-04-16T02:54:26.709Z,2.27
2023-04-16T02:56:53.824Z,2.37
2023-04-16T02:59:20.859Z,2.48
2023-04-16T03:01:48.070Z,2.55
2023-04-16T03:04:15.190Z,2.68
2023-04-16T03:06:42.285Z,2.77
2023-04-16T03:09:09.615Z,2.94
2023-04-16T03:11:36.871Z,3.02
2023-04-16T03:14:03.918Z,3.14
2023-04-16T03:16:31.006Z,3.28
2023-04-16T03:18:58.112Z,3.40
2023-04-16T03:21:25.210Z,3.51
2023-04-16T03:23:53.536Z,3.66
2023-04-16T03:26:21.083Z,3.83
2023-04-16T03:28:48.290Z,3.96
2023-04-16T03:31:15.584Z,4.14
2023-04-16T03:33:42.907Z,4.31
2023-04-16T03:36:10.327Z,4.45
2023-04-16T03:38:37.497Z,4.64
2023-04-16T03:41:04.539Z,4.84
2023-04-16T03:43:31.656Z,5.04
2023-04-16T03:45:58.752Z,5.21
2023-04-16T03:48:26.183Z,5.38
2023-04-16T03:50:53.203Z,5.54
2023-04-16T03:53:20.132Z,5.71
2023-04-16T03:55:53.785Z,5.89
2023-04-16T03:58:21.335Z,6.07
2023-04-16T04:00:48.550Z,6.26
2023-04-16T04:03:18.829Z,6.42
2023-04-16T04:05:46.538Z,6.64
2023-04-16T04:08:13.651Z,6.84
2023-04-16T04:10:40.875Z,6.96
2023-04-16T04:13:08.181Z,7.23
2023-04-16T04:15:35.292Z,7.46
2023-04-16T04:18:02.280Z,7.70
2023-04-16T04:20:29.392Z,7.95
2023-04-16T04:22:56.442Z,8.34
2023-04-16T04:25:23.628Z,9.05
2023-04-16T04:27:50.710Z,10.39
2023-04-16T04:30:17.855Z,14.27
2023-04-16T04:32:45.113Z,18.77
2023-04-16T04:35:12.301Z,22.74
2023-04-16T04:37:39.537Z,26.06
2023-04-16T04:40:07.379Z,28.80
2023-04-16T04:42:34.557Z,31.22
2023-04-16T04:45:01.659Z,33.13
2023-04-16T04:47:33.444Z,34.87
2023-04-16T04:50:00.626Z,36.25
2023-04-16T04:52:27.723Z,37.38
2023-04-16T04:54:54.948Z,38.35
2023-04-16T04:57:21.977Z,39.27
2023-04-16T04:59:48.978Z,40.11
2023-04-16T05:02:16.300Z,40.75
2023-04-16T05:04:43.458Z,41.55
2023-04-16T05:07:10.831Z,42.18
2023-04-16T05:09:37.873Z,42.67
2023-04-16T05:12:05.147Z,43.08
2023-04-16T05:14:32.459Z,43.36
2023-04-16T05:16:59.558Z,43.77
2023-04-16T05:19:26.719Z,44.19
2023-04-16T05:21:54.693Z,44.65
2023-04-16T05:24:23.441Z,44.97
2023-04-16T05:26:50.509Z,44.88
2023-04-16T05:29:17.620Z,45.05
2023-04-16T05:31:44.833Z,45.41
2023-04-16T05:34:12.016Z,45.77
2023-04-16T05:36:38.971Z,45.97
2023-04-16T05:39:06.338Z,46.17
2023-04-16T05:41:33.930Z,46.42
2023-04-16T05:44:00.991Z,46.73
2023-04-16T05:46:28.048Z,46.93
2023-04-16T05:48:55.048Z,47.16
2023-04-16T05:51:24.614Z,47.33
2023-04-16T05:53:51.785Z,47.27
2023-04-16T05:56:19.074Z,47.17
2023-04-16T05:58:46.270Z,47.28
2023-04-16T06:01:13.566Z,47.50
2023-04-16T06:03:40.888Z,47.76
2023-04-16T06:06:09.096Z,48.04
2023-04-16T06:08:36.251Z,48.21
2023-04-16T06:11:03.846Z,48.23
2023-04-16T06:13:31.186Z,48.14
2023-04-16T06:15:58.725Z,47.97
2023-04-16T06:18:25.930Z,47.86
2023-04-16T06:20:53.325Z,47.28
2023-04-16T06:23:20.738Z,46.89
2023-04-16T06:25:47.834Z,47.15
2023-04-16T06:28:15.388Z,47.60
2023-04-16T06:30:53.492Z,48.15
2023-04-16T06:33:20.950Z,48.44
2023-04-16T06:35:48.032Z,48.54
2023-04-16T06:38:15.817Z,48.67
2023-04-16T06:40:42.920Z,48.72
2023-04-16T06:43:10.020Z,48.76
2023-04-16T06:45:37.197Z,48.68
2023-04-16T06:48:05.313Z,48.52
2023-04-16T06:50:32.469Z,48.13
2023-04-16T06:52:59.562Z,47.42
2023-04-16T06:55:26.607Z,46.91
2023-04-16T06:57:53.675Z,46.65
2023-04-16T07:00:20.997Z,46.41
2023-04-16T07:02:48.204Z,46.38
2023-04-16T07:05:15.407Z,46.81
2023-04-16T07:07:42.686Z,46.94
2023-04-16T07:10:10.200Z,46.85
2023-04-16T07:12:37.486Z,46.73
2023-04-16T07:15:05.769Z,47.03
2023-04-16T07:17:33.295Z,47.25
2023-04-16T07:20:00.673Z,47.14
2023-04-16T07:22:27.959Z,47.17
2023-04-16T07:24:55.900Z,47.16
2023-04-16T07:27:23.431Z,47.27
2023-04-16T07:29:51.138Z,47.41
2023-04-16T07:32:18.359Z,47.70
2023-04-16T07:34:45.573Z,48.02
2023-04-16T07:37:12.672Z,48.23
2023-04-16T07:39:40.215Z,47.96
2023-04-16T07:42:07.537Z,47.37
2023-04-16T07:44:34.881Z,47.05
2023-04-16T07:47:04.744Z,47.15
2023-04-16T07:49:32.499Z,47.22
2023-04-16T07:51:59.701Z,47.52
2023-04-16T07:54:28.838Z,47.56
2023-04-16T07:56:56.501Z,47.62
2023-04-16T07:59:24.540Z,47.64
2023-04-16T08:01:54.056Z,47.84
2023-04-16T08:04:25.647Z,47.94
2023-04-16T08:06:54.111Z,48.03
2023-04-16T08:09:22.534Z,48.13
2023-04-16T08:11:50.173Z,48.17
2023-04-16T08:14:21.118Z,48.40
2023-04-16T08:16:48.156Z,48.92
2023-04-16T08:19:15.361Z,49.45
2023-04-16T08:21:42.523Z,49.87
2023-04-16T08:24:09.611Z,49.92
2023-04-16T08:26:36.735Z,49.96
2023-04-16T08:29:05.952Z,49.91
2023-04-16T08:31:37.338Z,49.74
2023-04-16T08:34:06.026Z,49.74
2023-04-16T08:36:33.184Z,49.89
2023-04-16T08:39:00.870Z,49.98
2023-04-16T08:41:36.912Z,49.69
2023-04-16T08:44:09.533Z,49.16
2023-04-16T08:46:38.132Z,48.74
2023-04-16T08:49:08.757Z,48.58
2023-04-16T08:51:36.433Z,48.47
2023-04-16T08:54:05.843Z,48.43
2023-04-16T08:56:37.674Z,48.36
2023-04-16T08:59:08.600Z,48.41
2023-04-16T09:01:36.236Z,48.50
2023-04-16T09:04:04.271Z,48.50
2023-04-16T09:06:33.349Z,48.85
2023-04-16T09:09:04.813Z,49.37
2023-04-16T09:11:32.575Z,50.05
2023-04-16T09:14:01.032Z,50.33
2023-04-16T09:16:33.818Z,49.97
2023-04-16T09:19:00.828Z,49.18
2023-04-16T09:21:28.267Z,48.52
2023-04-16T09:23:55.742Z,48.16
2023-04-16T09:26:23.078Z,48.20
2023-04-16T09:28:51.640Z,48.24
2023-04-16T09:31:19.632Z,48.45
2023-04-16T09:34:03.301Z,48.64
2023-04-16T09:36:32.701Z,48.95
2023-04-16T09:39:00.365Z,49.18
2023-04-16T09:41:29.649Z,49.42
2023-04-16T09:44:07.079Z,49.60
2023-04-16T09:46:41.975Z,49.90
2023-04-16T09:49:10.702Z,50.08
2023-04-16T09:51:38.546Z,50.03
2023-04-16T09:54:07.169Z,49.95
2023-04-16T09:56:34.297Z,49.63
2023-04-16T09:59:01.288Z,49.44
2023-04-16T10:01:30.922Z,49.30
2023-04-16T10:04:00.115Z,49.15
2023-04-16T10:06:29.674Z,49.04
2023-04-16T10:08:57.431Z,49.04
2023-04-16T10:11:26.086Z,48.90
2023-04-16T10:13:53.661Z,48.61
2023-04-16T10:16:23.141Z,48.24
2023-04-16T10:18:50.175Z,47.69
2023-04-16T10:21:17.586Z,47.17
2023-04-16T10:23:44.991Z,46.75
2023-04-16T10:26:12.253Z,46.59
2023-04-16T10:28:39.430Z,46.23
2023-04-16T10:31:08.925Z,45.95
2023-04-16T10:33:39.649Z,45.69
2023-04-16T10:36:10.808Z,45.65
2023-04-16T10:38:49.773Z,45.47
2023-04-16T10:41:17.392Z,45.48
2023-04-16T10:43:47.010Z,45.61
2023-04-16T10:46:31.049Z,45.78
2023-04-16T10:49:03.092Z,45.98
2023-04-16T10:51:33.261Z,46.07
2023-04-16T10:54:19.664Z,46.03
2023-04-16T10:56:47.717Z,45.81
2023-04-16T10:59:19.352Z,45.38
2023-04-16T11:01:49.033Z,44.99
2023-04-16T11:04:22.344Z,44.58
2023-04-16T11:07:11.785Z,44.00
2023-04-16T11:09:53.304Z,43.63
2023-04-16T11:12:28.055Z,43.31
2023-04-16T11:15:02.870Z,43.11
2023-04-16T11:17:44.942Z,43.01
2023-04-16T11:20:21.291Z,42.94
2023-04-16T11:22:50.586Z,42.87
2023-04-16T11:25:25.233Z,42.92
2023-04-16T11:27:53.755Z,43.06
2023-04-16T11:30:35.186Z,43.17
2023-04-16T11:33:10.022Z,43.25
2023-04-16T11:35:39.383Z,43.27
2023-04-16T11:38:07.638Z,43.17
2023-04-16T11:40:35.452Z,42.90
2023-04-16T11:43:15.111Z,42.18
2023-04-16T11:45:59.750Z,40.69
2023-04-16T11:48:47.193Z,39.07
2023-04-16T11:51:14.906Z,37.22
2023-04-16T11:53:55.297Z,35.62
2023-04-16T11:56:30.575Z,34.07
2023-04-16T11:59:14.870Z,32.69
2023-04-16T12:01:46.149Z,31.65
2023-04-16T12:04:16.063Z,30.70
2023-04-16T12:07:11.447Z,29.52
2023-04-16T12:09:43.280Z,28.57
2023-04-16T12:12:33.484Z,27.65
2023-04-16T12:15:05.124Z,26.99
2023-04-16T12:17:37.935Z,26.36
2023-04-16T12:20:12.911Z,25.76
2023-04-16T12:23:01.646Z,25.23
2023-04-16T12:25:29.211Z,24.88
2023-04-16T12:27:58.367Z,24.61
2023-04-16T12:30:27.242Z,24.33
2023-04-16T12:33:18.138Z,24.11
2023-04-16T12:35:46.085Z,23.82
2023-04-16T12:38:15.991Z,23.57
2023-04-16T12:40:43.516Z,23.44
2023-04-16T12:43:16.391Z,23.03
2023-04-16T12:45:46.736Z,23.10
2023-04-16T12:48:13.987Z,22.93
2023-04-16T12:50:44.519Z,22.81
2023-04-16T12:53:12.120Z,22.63
2023-04-16T12:55:39.394Z,22.41
2023-04-16T12:58:07.232Z,22.22
2023-04-16T13:00:34.141Z,22.13
2023-04-16T13:03:01.504Z,22.02
2023-04-16T13:05:29.021Z,21.89
2023-04-16T13:07:56.262Z,21.77
2023-04-16T13:10:23.760Z,21.65
2023-04-16T13:12:50.997Z,21.46
2023-04-16T13:15:18.240Z,21.26
2023-04-16T13:17:45.536Z,21.06
2023-04-16T13:20:12.750Z,20.97
2023-04-16T13:22:39.898Z,20.88
2023-04-16T13:25:07.715Z,20.78
2023-04-16T13:27:34.805Z,20.68
2023-04-16T13:30:01.924Z,20.51
2023-04-16T13:32:32.367Z,20.42
2023-04-16T13:34:59.582Z,20.30
2023-04-16T13:37:26.722Z,20.16
2023-04-16T13:39:53.683Z,20.04
2023-04-16T13:42:20.955Z,19.91
2023-04-16T13:44:49.527Z,19.80
2023-04-16T13:47:17.250Z,19.67
2023-04-16T13:49:44.453Z,19.61
2023-04-16T13:52:11.644Z,19.50
2023-04-16T13:54:38.671Z,19.36
2023-04-16T13:57:05.855Z,19.29
2023-04-16T13:59:33.210Z,19.22
2023-04-16T14:02:00.544Z,19.17
2023-04-16T14:04:28.052Z,19.11
2023-04-16T14:06:55.034Z,19.09
2023-04-16T14:09:21.968Z,19.00
2023-04-16T14:11:49.137Z,18.93
2023-04-16T14:14:16.399Z,18.84
2023-04-16T14:16:43.674Z,18.76
2023-04-16T14:19:11.271Z,18.59
2023-04-16T14:21:38.522Z,18.43
2023-04-16T14:24:06.190Z,18.23
2023-04-16T14:26:33.392Z,18.09
2023-04-16T14:29:00.475Z,17.95
2023-04-16T14:31:27.710Z,17.81
2023-04-16T14:33:54.855Z,17.74
2023-04-16T14:36:21.985Z,17.62
2023-04-16T14:38:49.131Z,17.51
2023-04-16T14:41:16.312Z,17.41
2023-04-16T14:43:44.616Z,17.36
2023-04-16T14:46:11.811Z,17.27
2023-04-16T14:48:39.242Z,17.18
2023-04-16T14:51:07.343Z,17.14
2023-04-16T14:53:36.296Z,17.05
2023-04-16T14:56:03.832Z,16.92
2023-04-16T14:58:31.597Z,16.87
2023-04-16T15:00:59.315Z,16.75
2023-04-16T15:03:26.825Z,16.65
2023-04-16T15:05:56.693Z,16.53
2023-04-16T15:08:24.737Z,16.33
2023-04-16T15:10:52.075Z,16.28
2023-04-16T15:13:19.656Z,16.19
2023-04-16T15:15:46.827Z,16.04
2023-04-16T15:18:14.124Z,15.98
2023-04-16T15:20:41.494Z,15.93
2023-04-16T15:23:08.493Z,15.82
2023-04-16T15:25:35.664Z,15.73
2023-04-16T15:28:02.844Z,15.64
2023-04-16T15:30:31.457Z,15.52
2023-04-16T15:32:58.570Z,15.42
2023-04-16T15:35:25.620Z,15.33
2023-04-16T15:37:53.075Z,15.20
2023-04-16T15:40:20.847Z,15.09
2023-04-16T15:42:47.992Z,14.98
2023-04-16T15:45:15.076Z,14.87
2023-04-16T15:47:48.100Z,14.73
2023-04-16T15:50:15.459Z,14.65
2023-04-16T15:52:42.543Z,14.52
2023-04-16T15:55:10.182Z,14.43
2023-04-16T15:57:37.291Z,14.34
2023-04-16T16:00:13.375Z,14.24
2023-04-16T16:02:42.074Z,14.14
2023-04-16T16:05:18.934Z,14.03
2023-04-16T16:07:46.590Z,13.92
2023-04-16T16:10:13.734Z,13.80
2023-04-16T16:12:41.559Z,13.73
2023-04-16T16:15:11.302Z,13.63
2023-04-16T16:17:39.107Z,13.54
2023-04-16T16:20:10.687Z,13.43
2023-04-16T16:22:38.437Z,13.35
2023-04-16T16:25:07.832Z,13.28
2023-04-16T16:27:36.493Z,13.19
2023-04-16T16:30:06.685Z,13.08
2023-04-16T16:32:34.378Z,13.03
2023-04-16T16:35:01.692Z,12.95
2023-04-16T16:37:31.050Z,12.88
2023-04-16T16:39:58.173Z,12.81
2023-04-16T16:42:25.368Z,12.74
2023-04-16T16:44:53.888Z,12.59
2023-04-16T16:47:22.095Z,12.56
2023-04-16T16:49:49.231Z,12.50
2023-04-16T16:52:16.390Z,12.45
2023-04-16T16:54:43.560Z,12.39
2023-04-16T16:57:11.007Z,12.34
2023-04-16T16:59:37.948Z,12.28
2023-04-16T17:02:06.690Z,12.25
2023-04-16T17:04:33.843Z,12.18
2023-04-16T17:07:01.288Z,12.15
2023-04-16T17:09:28.348Z,12.10
2023-04-16T17:11:55.551Z,12.06
2023-04-16T17:14:22.788Z,12.03
2023-04-16T17:16:50.069Z,11.93
2023-04-16T17:19:18.128Z,11.91
2023-04-16T17:21:45.276Z,11.90
2023-04-16T17:24:12.608Z,11.85
2023-04-16T17:26:41.302Z,11.80
2023-04-16T17:29:08.288Z,11.77
2023-04-16T17:31:36.102Z,11.73
2023-04-16T17:34:06.081Z,11.68
2023-04-16T17:36:33.142Z,11.64
2023-04-16T17:39:00.206Z,11.58
2023-04-16T17:41:27.455Z,11.53
2023-04-16T17:43:54.752Z,11.49
2023-04-16T17:46:22.060Z,11.34
2023-04-16T17:48:49.319Z,11.39
2023-04-16T17:51:16.718Z,11.34
2023-04-16T17:53:44.838Z,11.28
2023-04-16T17:56:13.990Z,11.20
2023-04-16T17:58:41.099Z,11.13
2023-04-16T18:01:08.383Z,11.07
2023-04-16T18:03:35.987Z,11.06
2023-04-16T18:06:03.298Z,11.00
2023-04-16T18:08:30.585Z,10.91
2023-04-16T18:10:57.805Z,10.88
2023-04-16T18:13:25.117Z,10.82
2023-04-16T18:15:53.199Z,10.75
2023-04-16T18:18:21.614Z,10.69
2023-04-16T18:20:48.820Z,10.63
2023-04-16T18:23:15.913Z,10.56
2023-04-16T18:25:43.369Z,10.50
2023-04-16T18:28:13.640Z,10.39
2023-04-16T18:30:41.204Z,10.35
2023-04-16T18:33:34.242Z,10.26
2023-04-16T18:35:55.462Z,10.20
2023-04-16T18:38:23.097Z,10.12
2023-04-16T18:40:50.113Z,10.03
2023-04-16T18:43:17.301Z,9.96
2023-04-16T18:45:45.078Z,9.91
2023-04-16T18:48:12.263Z,9.88
2023-04-16T18:50:39.419Z,9.81
2023-04-16T18:53:06.645Z,9.79
2023-04-16T18:55:33.786Z,9.75
2023-04-16T18:58:01.070Z,9.71
2023-04-16T19:00:28.441Z,9.67
2023-04-16T19:02:58.635Z,9.64
2023-04-16T19:05:25.769Z,9.61
2023-04-16T19:07:53.439Z,9.58
2023-04-16T19:10:20.522Z,9.55
2023-04-16T19:12:47.811Z,9.50
2023-04-16T19:15:15.000Z,9.46
2023-04-16T19:17:42.292Z,9.43
2023-04-16T19:20:11.700Z,9.44
2023-04-16T19:22:38.936Z,9.40
2023-04-16T19:25:07.395Z,9.38
2023-04-16T19:27:35.037Z,9.34
2023-04-16T19:30:03.064Z,9.32
2023-04-16T19:32:32.761Z,9.28
2023-04-16T19:34:59.875Z,9.25
2023-04-16T19:37:27.425Z,9.21
2023-04-16T19:39:55.941Z,9.16
2023-04-16T19:42:24.598Z,9.16
2023-04-16T19:44:52.487Z,9.15
2023-04-16T19:47:20.243Z,9.13
2023-04-16T19:49:47.389Z,9.13
2023-04-16T19:52:16.562Z,9.12
2023-04-16T19:54:44.130Z,9.09
2023-04-16T19:57:12.776Z,9.10
2023-04-16T19:59:39.840Z,9.05
2023-04-16T20:02:07.442Z,9.07
2023-04-16T20:04:35.712Z,9.05
2023-04-16T20:07:02.820Z,9.03
2023-04-16T20:09:30.008Z,9.01
2023-04-16T20:11:58.166Z,8.96
2023-04-16T20:14:25.418Z,8.97
2023-04-16T20:16:52.907Z,8.95
2023-04-16T20:19:20.078Z,8.90
2023-04-16T20:21:47.161Z,8.88
2023-04-16T20:24:15.571Z,8.83
2023-04-16T20:26:42.727Z,8.79
2023-04-16T20:29:10.585Z,8.74
2023-04-16T20:31:37.749Z,8.68
2023-04-16T20:34:04.728Z,8.61
2023-04-16T20:36:32.141Z,8.59
2023-04-16T20:39:00.011Z,8.52
2023-04-16T20:41:27.487Z,8.46
2023-04-16T20:43:54.586Z,8.41
2023-04-16T20:46:26.109Z,8.35
2023-04-16T20:48:53.228Z,8.26
2023-04-16T20:51:20.354Z,8.18
2023-04-16T20:53:47.396Z,8.05
2023-04-16T20:56:17.335Z,7.98
2023-04-16T20:58:44.454Z,7.92
2023-04-16T21:01:11.590Z,7.84
2023-04-16T21:03:38.881Z,7.78
2023-04-16T21:06:06.159Z,7.71
2023-04-16T21:08:33.255Z,7.64
2023-04-16T21:11:00.325Z,7.60
2023-04-16T21:13:27.443Z,7.52
2023-04-16T21:15:54.655Z,7.42
2023-04-16T21:18:21.833Z,7.40
2023-04-16T21:20:48.932Z,7.32
2023-04-16T21:23:16.087Z,7.23
2023-04-16T21:25:43.118Z,7.22
2023-04-16T21:28:10.330Z,7.16
2023-04-16T21:30:37.470Z,7.04
2023-04-16T21:33:04.552Z,7.04
2023-04-16T21:35:33.323Z,6.98
2023-04-16T21:38:00.399Z,6.92
2023-04-16T21:40:27.470Z,6.89
2023-04-16T21:42:55.371Z,6.85
2023-04-16T21:45:22.470Z,6.81
2023-04-16T21:47:49.767Z,6.67
2023-04-16T21:50:17.132Z,6.69
2023-04-16T21:52:46.864Z,6.67
2023-04-16T21:55:14.822Z,6.60
2023-04-16T21:57:41.914Z,6.55
2023-04-16T22:00:13.904Z,6.46
2023-04-16T22:02:42.732Z,6.41
2023-04-16T22:05:11.505Z,6.40
2023-04-16T22:07:39.069Z,6.36
2023-04-16T22:10:07.215Z,6.25
2023-04-16T22:12:37.836Z,6.26
2023-04-16T22:15:09.220Z,6.21
2023-04-16T22:17:36.942Z,6.21
2023-04-16T22:20:10.206Z,6.16
2023-04-16T22:22:37.268Z,6.12
2023-04-16T22:25:04.776Z,6.06
2023-04-16T22:27:33.915Z,6.06
2023-04-16T22:30:01.941Z,6.02
2023-04-16T22:32:34.287Z,5.96
2023-04-16T22:35:02.151Z,5.92
2023-04-16T22:37:31.069Z,5.93
2023-04-16T22:39:58.277Z,5.87
2023-04-16T22:42:25.295Z,5.80
2023-04-16T22:44:52.526Z,5.83
2023-04-16T22:47:19.587Z,5.81
2023-04-16T22:49:47.650Z,5.75
2023-04-16T22:52:14.733Z,5.71
2023-04-16T22:54:41.753Z,5.71
2023-04-16T22:57:08.848Z,5.57
2023-04-16T22:59:35.863Z,5.67
2023-04-16T23:02:02.949Z,5.66
2023-04-16T23:04:30.141Z,5.63
2023-04-16T23:06:57.244Z,5.60
2023-04-16T23:09:24.378Z,5.60
2023-04-16T23:11:51.490Z,5.58
2023-04-16T23:14:18.817Z,5.60
2023-04-16T23:16:45.851Z,5.58
2023-04-16T23:19:15.156Z,5.58
2023-04-16T23:21:42.651Z,5.56
2023-04-16T23:24:10.102Z,5.57
2023-04-16T23:26:37.160Z,5.50
2023-04-16T23:29:04.200Z,5.57
2023-04-16T23:31:31.324Z,5.51
2023-04-16T23:33:58.507Z,5.56
2023-04-16T23:36:26.586Z,5.53
2023-04-16T23:38:54.126Z,5.51
2023-04-16T23:41:23.366Z,5.50
2023-04-16T23:43:50.376Z,5.51
2023-04-16T23:46:17.809Z,5.50
2023-04-16T23:48:44.814Z,5.53
2023-04-16T23:51:12.023Z,5.51
2023-04-16T23:53:41.032Z,5.52
2023-04-16T23:56:11.329Z,5.49
2023-04-16T23:58:39.038Z,5.45
